sensor_id;sensor_type;location;lat;lon;timestamp;pressure;altitude;pressure_sealevel;temperature;humidity
7524;BME280;3803;51.666;7.630;2023-04-07T00:00:02;100815.94;;;9.57;68.50
7524;BME280;3803;51.666;7.630;2023-04-07T00:00:32;100816.81;;;9.57;68.36
7524;BME280;3803;51.666;7.630;2023-04-07T00:00:52;100811.56;;;9.56;68.42
7524;BME280;3803;51.666;7.630;2023-04-07T00:01:13;100819.50;;;9.59;68.74
7524;BME280;3803;51.666;7.630;2023-04-07T00:01:33;100815.97;;;9.58;68.44
7524;BME280;3803;51.666;7.630;2023-04-07T00:01:54;100815.13;;;9.59;68.23
7524;BME280;3803;51.666;7.630;2023-04-07T00:02:15;100824.00;;;9.65;68.72
7524;BME280;3803;51.666;7.630;2023-04-07T00:02:35;100813.28;;;9.55;68.68
7524;BME280;3803;51.666;7.630;2023-04-07T00:02:56;100821.97;;;9.56;68.41
7524;BME280;3803;51.666;7.630;2023-04-07T00:03:18;100825.63;;;9.61;68.51
7524;BME280;3803;51.666;7.630;2023-04-07T00:03:38;100824.72;;;9.60;68.31
7524;BME280;3803;51.666;7.630;2023-04-07T00:04:00;100820.97;;;9.52;68.65
7524;BME280;3803;51.666;7.630;2023-04-07T00:04:21;100825.47;;;9.56;68.54
7524;BME280;3803;51.666;7.630;2023-04-07T00:04:42;100810.47;;;9.49;68.65
7524;BME280;3803;51.666;7.630;2023-04-07T00:05:03;100811.41;;;9.51;68.78
7524;BME280;3803;51.666;7.630;2023-04-07T00:05:23;100809.56;;;9.49;68.96
7524;BME280;3803;51.666;7.630;2023-04-07T00:05:44;100828.16;;;9.59;68.91
7524;BME280;3803;51.666;7.630;2023-04-07T00:06:05;100830.84;;;9.61;68.54
7524;BME280;3803;51.666;7.630;2023-04-07T00:06:25;100821.19;;;9.58;68.68
7524;BME280;3803;51.666;7.630;2023-04-07T00:06:46;100815.94;;;9.57;68.43
7524;BME280;3803;51.666;7.630;2023-04-07T00:07:07;100816.75;;;9.56;68.67
7524;BME280;3803;51.666;7.630;2023-04-07T00:07:28;100824.94;;;9.67;68.78
7524;BME280;3803;51.666;7.630;2023-04-07T00:07:48;100819.72;;;9.67;68.76
7524;BME280;3803;51.666;7.630;2023-04-07T00:08:09;100819.50;;;9.60;68.49
7524;BME280;3803;51.666;7.630;2023-04-07T00:08:29;100815.13;;;9.59;68.57
7524;BME280;3803;51.666;7.630;2023-04-07T00:08:50;100821.50;;;9.68;68.55
7524;BME280;3803;51.666;7.630;2023-04-07T00:09:11;100822.19;;;9.62;68.32
7524;BME280;3803;51.666;7.630;2023-04-07T00:09:32;100808.22;;;9.60;68.56
7524;BME280;3803;51.666;7.630;2023-04-07T00:09:53;100815.25;;;9.63;68.55
7524;BME280;3803;51.666;7.630;2023-04-07T00:10:13;100807.31;;;9.59;68.15
7524;BME280;3803;51.666;7.630;2023-04-07T00:10:34;100828.53;;;9.70;68.50
7524;BME280;3803;51.666;7.630;2023-04-07T00:10:55;100810.84;;;9.62;68.60
7524;BME280;3803;51.666;7.630;2023-04-07T00:11:15;100809.94;;;9.59;68.52
7524;BME280;3803;51.666;7.630;2023-04-07T00:11:37;100829.38;;;9.69;68.38
7524;BME280;3803;51.666;7.630;2023-04-07T00:11:57;100812.66;;;9.63;68.39
7524;BME280;3803;51.666;7.630;2023-04-07T00:12:21;100822.38;;;9.68;68.54
7524;BME280;3803;51.666;7.630;2023-04-07T00:12:41;100816.13;;;9.63;68.55
7524;BME280;3803;51.666;7.630;2023-04-07T00:13:02;100815.34;;;9.66;68.42
7524;BME280;3803;51.666;7.630;2023-04-07T00:13:23;100818.78;;;9.65;68.27
7524;BME280;3803;51.666;7.630;2023-04-07T00:13:43;100826.50;;;9.62;68.56
7524;BME280;3803;51.666;7.630;2023-04-07T00:14:04;100801.91;;;9.53;68.49
7524;BME280;3803;51.666;7.630;2023-04-07T00:14:25;100816.75;;;9.56;68.71
7524;BME280;3803;51.666;7.630;2023-04-07T00:14:45;100821.09;;;9.55;69.02
7524;BME280;3803;51.666;7.630;2023-04-07T00:15:06;100806.97;;;9.49;69.01
7524;BME280;3803;51.666;7.630;2023-04-07T00:15:27;100816.69;;;9.53;68.63
7524;BME280;3803;51.666;7.630;2023-04-07T00:15:47;100831.63;;;9.58;68.94
7524;BME280;3803;51.666;7.630;2023-04-07T00:16:08;100812.16;;;9.47;69.00
7524;BME280;3803;51.666;7.630;2023-04-07T00:16:29;100815.56;;;9.46;68.69
7524;BME280;3803;51.666;7.630;2023-04-07T00:16:49;100817.44;;;9.50;69.21
7524;BME280;3803;51.666;7.630;2023-04-07T00:17:10;100814.94;;;9.53;68.76
7524;BME280;3803;51.666;7.630;2023-04-07T00:17:30;100815.84;;;9.54;68.97
7524;BME280;3803;51.666;7.630;2023-04-07T00:17:51;100824.72;;;9.60;68.73
7524;BME280;3803;51.666;7.630;2023-04-07T00:18:11;100814.13;;;9.54;68.64
7524;BME280;3803;51.666;7.630;2023-04-07T00:18:32;100807.13;;;9.53;68.71
7524;BME280;3803;51.666;7.630;2023-04-07T00:18:53;100807.25;;;9.56;68.75
7524;BME280;3803;51.666;7.630;2023-04-07T00:19:13;100826.63;;;9.65;68.72
7524;BME280;3803;51.666;7.630;2023-04-07T00:19:34;100821.34;;;9.63;68.80
7524;BME280;3803;51.666;7.630;2023-04-07T00:19:55;100818.72;;;9.63;68.60
7524;BME280;3803;51.666;7.630;2023-04-07T00:20:15;100808.91;;;9.54;68.57
7524;BME280;3803;51.666;7.630;2023-04-07T00:20:36;100805.50;;;9.57;68.57
7524;BME280;3803;51.666;7.630;2023-04-07T00:20:57;100819.50;;;9.60;68.60
7524;BME280;3803;51.666;7.630;2023-04-07T00:21:17;100815.09;;;9.58;68.68
7524;BME280;3803;51.666;7.630;2023-04-07T00:21:38;100802.91;;;9.57;68.59
7524;BME280;3803;51.666;7.630;2023-04-07T00:21:58;100821.41;;;9.65;68.73
7524;BME280;3803;51.666;7.630;2023-04-07T00:22:19;100812.53;;;9.59;68.57
7524;BME280;3803;51.666;7.630;2023-04-07T00:22:40;100808.16;;;9.58;68.33
7524;BME280;3803;51.666;7.630;2023-04-07T00:23:00;100809.00;;;9.57;68.47
7524;BME280;3803;51.666;7.630;2023-04-07T00:23:21;100828.38;;;9.66;68.47
7524;BME280;3803;51.666;7.630;2023-04-07T00:23:41;100812.47;;;9.58;68.40
7524;BME280;3803;51.666;7.630;2023-04-07T00:24:02;100803.59;;;9.51;68.86
7524;BME280;3803;51.666;7.630;2023-04-07T00:24:23;100814.06;;;9.53;68.54
7524;BME280;3803;51.666;7.630;2023-04-07T00:24:43;100803.44;;;9.46;68.78
7524;BME280;3803;51.666;7.630;2023-04-07T00:25:04;100803.38;;;9.45;68.86
7524;BME280;3803;51.666;7.630;2023-04-07T00:25:25;100816.72;;;9.54;68.98
7524;BME280;3803;51.666;7.630;2023-04-07T00:25:47;100822.75;;;9.53;68.87
7524;BME280;3803;51.666;7.630;2023-04-07T00:26:08;100804.22;;;9.44;68.79
7524;BME280;3803;51.666;7.630;2023-04-07T00:26:29;100811.25;;;9.46;68.98
7524;BME280;3803;51.666;7.630;2023-04-07T00:26:52;100815.69;;;9.49;68.81
7524;BME280;3803;51.666;7.630;2023-04-07T00:27:12;100806.03;;;9.46;68.74
7524;BME280;3803;51.666;7.630;2023-04-07T00:27:33;100801.72;;;9.47;68.94
7524;BME280;3803;51.666;7.630;2023-04-07T00:27:54;100806.09;;;9.48;69.01
7524;BME280;3803;51.666;7.630;2023-04-07T00:28:14;100812.25;;;9.50;68.88
7524;BME280;3803;51.666;7.630;2023-04-07T00:28:35;100805.16;;;9.46;68.68
7524;BME280;3803;51.666;7.630;2023-04-07T00:28:56;100814.13;;;9.54;68.61
7524;BME280;3803;51.666;7.630;2023-04-07T00:29:17;100820.25;;;9.56;68.96
7524;BME280;3803;51.666;7.630;2023-04-07T00:29:38;100802.66;;;9.49;68.77
7524;BME280;3803;51.666;7.630;2023-04-07T00:29:58;100807.03;;;9.50;68.80
7524;BME280;3803;51.666;7.630;2023-04-07T00:30:19;100801.72;;;9.47;68.85
7524;BME280;3803;51.666;7.630;2023-04-07T00:30:39;100798.28;;;9.48;68.65
7524;BME280;3803;51.666;7.630;2023-04-07T00:31:00;100809.78;;;9.55;69.06
7524;BME280;3803;51.666;7.630;2023-04-07T00:31:21;100799.16;;;9.49;68.91
7524;BME280;3803;51.666;7.630;2023-04-07T00:31:41;100800.06;;;9.49;69.09
7524;BME280;3803;51.666;7.630;2023-04-07T00:32:02;100806.13;;;9.50;69.08
7524;BME280;3803;51.666;7.630;2023-04-07T00:32:23;100819.50;;;9.60;68.90
7524;BME280;3803;51.666;7.630;2023-04-07T00:32:43;100800.13;;;9.51;68.71
7524;BME280;3803;51.666;7.630;2023-04-07T00:33:04;100801.09;;;9.54;68.65
7524;BME280;3803;51.666;7.630;2023-04-07T00:33:24;100822.97;;;9.59;68.98
7524;BME280;3803;51.666;7.630;2023-04-07T00:33:45;100810.78;;;9.58;68.77
7524;BME280;3803;51.666;7.630;2023-04-07T00:34:07;100803.59;;;9.51;68.53
7524;BME280;3803;51.666;7.630;2023-04-07T00:34:28;100811.66;;;9.59;68.70
7524;BME280;3803;51.666;7.630;2023-04-07T00:34:48;100811.59;;;9.57;68.54
7524;BME280;3803;51.666;7.630;2023-04-07T00:35:09;100800.25;;;9.55;68.37
7524;BME280;3803;51.666;7.630;2023-04-07T00:35:30;100795.78;;;9.51;68.77
7524;BME280;3803;51.666;7.630;2023-04-07T00:35:50;100799.31;;;9.53;68.88
7524;BME280;3803;51.666;7.630;2023-04-07T00:36:11;100806.47;;;9.59;68.83
7524;BME280;3803;51.666;7.630;2023-04-07T00:36:31;100803.72;;;9.56;68.49
7524;BME280;3803;51.666;7.630;2023-04-07T00:36:52;100803.88;;;9.60;68.74
7524;BME280;3803;51.666;7.630;2023-04-07T00:37:13;100798.50;;;9.54;68.52
7524;BME280;3803;51.666;7.630;2023-04-07T00:37:34;100801.97;;;9.55;68.58
7524;BME280;3803;51.666;7.630;2023-04-07T00:37:55;100801.91;;;9.53;68.73
7524;BME280;3803;51.666;7.630;2023-04-07T00:38:16;100793.09;;;9.50;68.66
7524;BME280;3803;51.666;7.630;2023-04-07T00:38:36;100799.41;;;9.56;68.81
7524;BME280;3803;51.666;7.630;2023-04-07T00:38:57;100799.38;;;9.55;68.62
7524;BME280;3803;51.666;7.630;2023-04-07T00:39:18;100810.97;;;9.65;68.77
7524;BME280;3803;51.666;7.630;2023-04-07T00:39:40;100803.78;;;9.57;68.74
7524;BME280;3803;51.666;7.630;2023-04-07T00:40:01;100792.31;;;9.51;68.65
7524;BME280;3803;51.666;7.630;2023-04-07T00:40:22;100792.19;;;9.48;68.31
7524;BME280;3803;51.666;7.630;2023-04-07T00:40:43;100796.69;;;9.53;68.46
7524;BME280;3803;51.666;7.630;2023-04-07T00:41:03;100796.69;;;9.53;68.58
7524;BME280;3803;51.666;7.630;2023-04-07T00:41:24;100784.44;;;9.49;68.40
7524;BME280;3803;51.666;7.630;2023-04-07T00:41:45;100792.25;;;9.49;68.67
7524;BME280;3803;51.666;7.630;2023-04-07T00:42:06;100796.75;;;9.55;68.22
7524;BME280;3803;51.666;7.630;2023-04-07T00:42:27;100791.41;;;9.50;68.95
7524;BME280;3803;51.666;7.630;2023-04-07T00:42:48;100789.78;;;9.54;68.34
7524;BME280;3803;51.666;7.630;2023-04-07T00:43:08;100798.38;;;9.51;68.49
7524;BME280;3803;51.666;7.630;2023-04-07T00:43:29;100798.38;;;9.51;68.40
7524;BME280;3803;51.666;7.630;2023-04-07T00:43:50;100798.50;;;9.54;68.36
7524;BME280;3803;51.666;7.630;2023-04-07T00:44:12;100812.66;;;9.63;68.52
7524;BME280;3803;51.666;7.630;2023-04-07T00:44:33;100799.44;;;9.58;68.45
7524;BME280;3803;51.666;7.630;2023-04-07T00:44:53;100799.44;;;9.58;68.60
7524;BME280;3803;51.666;7.630;2023-04-07T00:45:14;100784.56;;;9.54;68.48
7524;BME280;3803;51.666;7.630;2023-04-07T00:45:35;100793.28;;;9.54;68.73
7524;BME280;3803;51.666;7.630;2023-04-07T00:45:56;100803.03;;;9.62;68.19
7524;BME280;3803;51.666;7.630;2023-04-07T00:46:18;100809.31;;;9.67;68.13
7524;BME280;3803;51.666;7.630;2023-04-07T00:46:41;100799.63;;;9.63;68.50
7524;BME280;3803;51.666;7.630;2023-04-07T00:47:02;100802.25;;;9.63;68.40
7524;BME280;3803;51.666;7.630;2023-04-07T00:47:23;100795.13;;;9.58;68.31
7524;BME280;3803;51.666;7.630;2023-04-07T00:47:43;100798.66;;;9.60;68.66
7524;BME280;3803;51.666;7.630;2023-04-07T00:48:04;100788.25;;;9.60;68.21
7524;BME280;3803;51.666;7.630;2023-04-07T00:48:25;100789.94;;;9.58;68.51
7524;BME280;3803;51.666;7.630;2023-04-07T00:48:46;100785.56;;;9.57;68.27
7524;BME280;3803;51.666;7.630;2023-04-07T00:49:07;100787.31;;;9.58;68.21
7524;BME280;3803;51.666;7.630;2023-04-07T00:49:27;100800.56;;;9.65;68.49
7524;BME280;3803;51.666;7.630;2023-04-07T00:49:48;100780.28;;;9.56;68.62
7524;BME280;3803;51.666;7.630;2023-04-07T00:50:09;100781.19;;;9.56;68.41
7524;BME280;3803;51.666;7.630;2023-04-07T00:50:29;100791.69;;;9.59;68.17
7524;BME280;3803;51.666;7.630;2023-04-07T00:50:50;100795.28;;;9.63;68.40
7524;BME280;3803;51.666;7.630;2023-04-07T00:51:11;100783.81;;;9.58;68.55
7524;BME280;3803;51.666;7.630;2023-04-07T00:51:32;100803.22;;;9.66;68.40
7524;BME280;3803;51.666;7.630;2023-04-07T00:51:54;100790.00;;;9.60;68.50
7524;BME280;3803;51.666;7.630;2023-04-07T00:52:16;100782.03;;;9.55;68.10
7524;BME280;3803;51.666;7.630;2023-04-07T00:52:36;100801.41;;;9.65;68.61
7524;BME280;3803;51.666;7.630;2023-04-07T00:52:57;100796.06;;;9.60;68.43
7524;BME280;3803;51.666;7.630;2023-04-07T00:53:19;100791.81;;;9.63;68.59
7524;BME280;3803;51.666;7.630;2023-04-07T00:53:40;100798.78;;;9.64;68.71
7524;BME280;3803;51.666;7.630;2023-04-07T00:54:01;100787.25;;;9.55;68.53
7524;BME280;3803;51.666;7.630;2023-04-07T00:54:22;100782.88;;;9.54;68.62
7524;BME280;3803;51.666;7.630;2023-04-07T00:54:44;100803.88;;;9.60;68.68
7524;BME280;3803;51.666;7.630;2023-04-07T00:55:06;100785.47;;;9.54;68.55
7524;BME280;3803;51.666;7.630;2023-04-07T00:55:27;100795.13;;;9.58;68.66
7524;BME280;3803;51.666;7.630;2023-04-07T00:55:47;100798.66;;;9.60;68.49
7524;BME280;3803;51.666;7.630;2023-04-07T00:56:08;100779.31;;;9.52;68.49
7524;BME280;3803;51.666;7.630;2023-04-07T00:56:28;100792.53;;;9.58;68.62
7524;BME280;3803;51.666;7.630;2023-04-07T00:56:49;100791.59;;;9.56;68.63
7524;BME280;3803;51.666;7.630;2023-04-07T00:57:11;100788.94;;;9.55;68.66
7524;BME280;3803;51.666;7.630;2023-04-07T00:57:32;100780.91;;;9.49;68.73
7524;BME280;3803;51.666;7.630;2023-04-07T00:57:53;100798.66;;;9.59;68.72
7524;BME280;3803;51.666;7.630;2023-04-07T00:58:13;100803.84;;;9.59;68.53
7524;BME280;3803;51.666;7.630;2023-04-07T00:58:36;100793.28;;;9.54;68.99
7524;BME280;3803;51.666;7.630;2023-04-07T00:58:56;100793.38;;;9.57;68.63
7524;BME280;3803;51.666;7.630;2023-04-07T00:59:17;100780.91;;;9.47;68.66
7524;BME280;3803;51.666;7.630;2023-04-07T00:59:38;100796.91;;;9.59;68.66
7524;BME280;3803;51.666;7.630;2023-04-07T00:59:59;100791.41;;;9.50;69.13
7524;BME280;3803;51.666;7.630;2023-04-07T01:00:20;100789.63;;;9.49;68.76
7524;BME280;3803;51.666;7.630;2023-04-07T01:01:08;100802.13;;;9.59;68.88
7524;BME280;3803;51.666;7.630;2023-04-07T01:01:35;100787.19;;;9.54;68.91
7524;BME280;3803;51.666;7.630;2023-04-07T01:02:09;100775.78;;;9.50;68.66
7524;BME280;3803;51.666;7.630;2023-04-07T01:02:44;100801.41;;;9.64;68.94
7524;BME280;3803;51.666;7.630;2023-04-07T01:03:09;100789.94;;;9.58;68.55
7524;BME280;3803;51.666;7.630;2023-04-07T01:03:44;100798.00;;;9.66;68.77
7524;BME280;3803;51.666;7.630;2023-04-07T01:04:14;100784.81;;;9.62;68.62
7524;BME280;3803;51.666;7.630;2023-04-07T01:04:47;100797.19;;;9.69;68.50
7524;BME280;3803;51.666;7.630;2023-04-07T01:05:22;100788.41;;;9.65;68.66
7524;BME280;3803;51.666;7.630;2023-04-07T01:05:58;100793.75;;;9.70;68.76
7524;BME280;3803;51.666;7.630;2023-04-07T01:06:23;100784.03;;;9.64;68.32
7524;BME280;3803;51.666;7.630;2023-04-07T01:06:49;100795.56;;;9.72;68.77
7524;BME280;3803;51.666;7.630;2023-04-07T01:07:17;100797.31;;;9.72;68.78
7524;BME280;3803;51.666;7.630;2023-04-07T01:08:16;100787.75;;;9.72;68.54
7524;BME280;3803;51.666;7.630;2023-04-07T01:09:15;100783.25;;;9.67;68.62
7524;BME280;3803;51.666;7.630;2023-04-07T01:09:55;100778.03;;;9.67;68.62
7524;BME280;3803;51.666;7.630;2023-04-07T01:10:25;100783.25;;;9.67;68.35
7524;BME280;3803;51.666;7.630;2023-04-07T01:11:01;100797.41;;;9.75;68.36
7524;BME280;3803;51.666;7.630;2023-04-07T01:11:31;100781.47;;;9.66;68.56
7524;BME280;3803;51.666;7.630;2023-04-07T01:12:20;100775.34;;;9.64;68.63
7524;BME280;3803;51.666;7.630;2023-04-07T01:13:02;100791.25;;;9.73;68.60
7524;BME280;3803;51.666;7.630;2023-04-07T01:13:33;100782.38;;;9.66;68.60
7524;BME280;3803;51.666;7.630;2023-04-07T01:14:03;100781.47;;;9.66;68.38
7524;BME280;3803;51.666;7.630;2023-04-07T01:14:32;100786.69;;;9.66;68.58
7524;BME280;3803;51.666;7.630;2023-04-07T01:15:11;100772.63;;;9.60;68.55
7524;BME280;3803;51.666;7.630;2023-04-07T01:15:37;100780.41;;;9.59;68.84
7524;BME280;3803;51.666;7.630;2023-04-07T01:16:03;100775.06;;;9.56;68.90
7524;BME280;3803;51.666;7.630;2023-04-07T01:16:31;100775.97;;;9.56;68.73
7524;BME280;3803;51.666;7.630;2023-04-07T01:16:55;100777.75;;;9.57;68.68
7524;BME280;3803;51.666;7.630;2023-04-07T01:17:19;100777.66;;;9.54;68.92
7524;BME280;3803;51.666;7.630;2023-04-07T01:17:48;100777.69;;;9.56;68.58
7524;BME280;3803;51.666;7.630;2023-04-07T01:18:16;100773.31;;;9.55;68.77
7524;BME280;3803;51.666;7.630;2023-04-07T01:18:41;100797.09;;;9.66;68.56
7524;BME280;3803;51.666;7.630;2023-04-07T01:19:12;100789.28;;;9.66;68.71
7524;BME280;3803;51.666;7.630;2023-04-07T01:19:47;100787.59;;;9.66;68.89
7524;BME280;3803;51.666;7.630;2023-04-07T01:20:15;100779.50;;;9.58;68.91
7524;BME280;3803;51.666;7.630;2023-04-07T01:20:37;100786.78;;;9.69;68.92
7524;BME280;3803;51.666;7.630;2023-04-07T01:21:06;100776.25;;;9.66;68.73
7524;BME280;3803;51.666;7.630;2023-04-07T01:21:32;100790.34;;;9.71;68.84
7524;BME280;3803;51.666;7.630;2023-04-07T01:21:55;100776.13;;;9.61;68.82
7524;BME280;3803;51.666;7.630;2023-04-07T01:22:23;100785.94;;;9.70;68.86
7524;BME280;3803;51.666;7.630;2023-04-07T01:22:50;100774.56;;;9.66;68.78
7524;BME280;3803;51.666;7.630;2023-04-07T01:23:21;100786.88;;;9.72;68.60
7524;BME280;3803;51.666;7.630;2023-04-07T01:25:59;100783.50;;;9.75;68.76
7524;BME280;3803;51.666;7.630;2023-04-07T01:26:31;100783.50;;;9.75;68.70
7524;BME280;3803;51.666;7.630;2023-04-07T01:26:59;100783.44;;;9.73;68.56
7524;BME280;3803;51.666;7.630;2023-04-07T01:28:45;100767.59;;;9.67;68.87
7524;BME280;3803;51.666;7.630;2023-04-07T01:29:37;100782.69;;;9.77;68.70
7524;BME280;3803;51.666;7.630;2023-04-07T01:30:02;100780.09;;;9.77;68.72
7524;BME280;3803;51.666;7.630;2023-04-07T01:30:27;100778.31;;;9.76;68.54
7524;BME280;3803;51.666;7.630;2023-04-07T01:30:48;100772.19;;;9.74;68.57
7524;BME280;3803;51.666;7.630;2023-04-07T01:31:11;100782.69;;;9.77;68.89
7524;BME280;3803;51.666;7.630;2023-04-07T01:31:36;100760.72;;;9.69;68.69
7524;BME280;3803;51.666;7.630;2023-04-07T01:31:59;100780.97;;;9.78;68.75
7524;BME280;3803;51.666;7.630;2023-04-07T01:32:22;100775.63;;;9.73;68.40
7524;BME280;3803;51.666;7.630;2023-04-07T01:32:46;100769.50;;;9.71;68.85
7524;BME280;3803;51.666;7.630;2023-04-07T01:33:11;100764.16;;;9.68;68.61
7524;BME280;3803;51.666;7.630;2023-04-07T01:33:33;100773.03;;;9.73;68.83
7524;BME280;3803;51.666;7.630;2023-04-07T01:33:56;100778.22;;;9.73;68.60
7524;BME280;3803;51.666;7.630;2023-04-07T01:34:18;100780.84;;;9.73;68.44
7524;BME280;3803;51.666;7.630;2023-04-07T01:34:40;100776.56;;;9.75;68.89
7524;BME280;3803;51.666;7.630;2023-04-07T01:35:02;100767.53;;;9.64;68.58
7524;BME280;3803;51.666;7.630;2023-04-07T01:35:26;100777.31;;;9.71;68.84
7524;BME280;3803;51.666;7.630;2023-04-07T01:35:49;100781.56;;;9.69;68.80
7524;BME280;3803;51.666;7.630;2023-04-07T01:36:11;100763.97;;;9.62;68.65
7524;BME280;3803;51.666;7.630;2023-04-07T01:36:32;100779.78;;;9.68;68.77
7524;BME280;3803;51.666;7.630;2023-04-07T01:36:54;100764.84;;;9.62;69.15
7524;BME280;3803;51.666;7.630;2023-04-07T01:37:16;100761.34;;;9.62;68.83
7524;BME280;3803;51.666;7.630;2023-04-07T01:37:37;100759.72;;;9.64;68.98
7524;BME280;3803;51.666;7.630;2023-04-07T01:37:59;100767.59;;;9.67;68.97
7524;BME280;3803;51.666;7.630;2023-04-07T01:38:20;100769.50;;;9.71;68.65
7524;BME280;3803;51.666;7.630;2023-04-07T01:38:43;100758.75;;;9.62;68.98
7524;BME280;3803;51.666;7.630;2023-04-07T01:39:05;100758.81;;;9.63;69.23
7524;BME280;3803;51.666;7.630;2023-04-07T01:39:26;100772.03;;;9.69;68.82
7524;BME280;3803;51.666;7.630;2023-04-07T01:39:47;100762.16;;;9.59;68.97
7524;BME280;3803;51.666;7.630;2023-04-07T01:40:08;100771.25;;;9.72;68.97
7524;BME280;3803;51.666;7.630;2023-04-07T01:40:32;100774.72;;;9.72;69.05
7524;BME280;3803;51.666;7.630;2023-04-07T01:40:54;100773.84;;;9.72;69.07
7524;BME280;3803;51.666;7.630;2023-04-07T01:41:16;100766.75;;;9.66;68.73
7524;BME280;3803;51.666;7.630;2023-04-07T01:41:39;100767.81;;;9.73;68.73
7524;BME280;3803;51.666;7.630;2023-04-07T01:42:02;100753.75;;;9.68;68.79
7524;BME280;3803;51.666;7.630;2023-04-07T01:42:26;100758.88;;;9.65;68.44
7524;BME280;3803;51.666;7.630;2023-04-07T01:42:48;100752.75;;;9.64;68.77
7524;BME280;3803;51.666;7.630;2023-04-07T01:43:09;100771.25;;;9.72;68.90
7524;BME280;3803;51.666;7.630;2023-04-07T01:43:31;100761.63;;;9.69;68.88
7524;BME280;3803;51.666;7.630;2023-04-07T01:43:52;100758.94;;;9.66;68.71
7524;BME280;3803;51.666;7.630;2023-04-07T01:44:14;100776.50;;;9.73;68.78
7524;BME280;3803;51.666;7.630;2023-04-07T01:44:36;100765.97;;;9.70;68.67
7524;BME280;3803;51.666;7.630;2023-04-07T01:44:58;100770.41;;;9.73;68.64
7524;BME280;3803;51.666;7.630;2023-04-07T01:45:20;100760.69;;;9.67;68.79
7524;BME280;3803;51.666;7.630;2023-04-07T01:45:41;100780.00;;;9.74;68.81
7524;BME280;3803;51.666;7.630;2023-04-07T01:46:04;100764.16;;;9.68;68.84
7524;BME280;3803;51.666;7.630;2023-04-07T01:46:24;100773.84;;;9.72;68.96
7524;BME280;3803;51.666;7.630;2023-04-07T01:46:46;100772.19;;;9.74;68.86
7524;BME280;3803;51.666;7.630;2023-04-07T01:47:07;100763.31;;;9.69;68.65
7524;BME280;3803;51.666;7.630;2023-04-07T01:47:28;100774.00;;;9.77;68.59
7524;BME280;3803;51.666;7.630;2023-04-07T01:47:52;100766.03;;;9.72;68.88
7524;BME280;3803;51.666;7.630;2023-04-07T01:48:14;100757.19;;;9.67;68.58
7524;BME280;3803;51.666;7.630;2023-04-07T01:48:36;100774.88;;;9.77;68.78
7524;BME280;3803;51.666;7.630;2023-04-07T01:48:57;100771.25;;;9.72;68.86
7524;BME280;3803;51.666;7.630;2023-04-07T01:49:19;100780.09;;;9.77;68.60
7524;BME280;3803;51.666;7.630;2023-04-07T01:49:40;100767.81;;;9.73;68.78
7524;BME280;3803;51.666;7.630;2023-04-07T01:50:02;100765.94;;;9.69;68.77
7524;BME280;3803;51.666;7.630;2023-04-07T01:50:25;100762.31;;;9.64;68.55
7524;BME280;3803;51.666;7.630;2023-04-07T01:50:46;100761.53;;;9.66;68.78
7524;BME280;3803;51.666;7.630;2023-04-07T01:51:09;100756.19;;;9.63;69.10
7524;BME280;3803;51.666;7.630;2023-04-07T01:51:32;100776.47;;;9.72;69.00
7524;BME280;3803;51.666;7.630;2023-04-07T01:51:54;100758.72;;;9.60;68.69
7524;BME280;3803;51.666;7.630;2023-04-07T01:52:15;100779.06;;;9.72;68.86
7524;BME280;3803;51.666;7.630;2023-04-07T01:52:36;100778.22;;;9.73;68.88
7524;BME280;3803;51.666;7.630;2023-04-07T01:52:58;100770.22;;;9.67;68.84
7524;BME280;3803;51.666;7.630;2023-04-07T01:53:20;100780.84;;;9.73;69.01
7524;BME280;3803;51.666;7.630;2023-04-07T01:53:40;100764.91;;;9.64;69.10
7524;BME280;3803;51.666;7.630;2023-04-07T01:54:01;100756.97;;;9.60;69.01
7524;BME280;3803;51.666;7.630;2023-04-07T01:54:24;100760.63;;;9.66;69.07
7524;BME280;3803;51.666;7.630;2023-04-07T01:54:46;100770.28;;;9.70;68.71
7524;BME280;3803;51.666;7.630;2023-04-07T01:55:08;100774.63;;;9.69;68.99
7524;BME280;3803;51.666;7.630;2023-04-07T01:55:34;100777.25;;;9.69;68.98
7524;BME280;3803;51.666;7.630;2023-04-07T01:55:59;100765.84;;;9.66;69.04
7524;BME280;3803;51.666;7.630;2023-04-07T01:56:20;100765.91;;;9.67;69.19
7524;BME280;3803;51.666;7.630;2023-04-07T01:56:44;100765.94;;;9.69;69.03
7524;BME280;3803;51.666;7.630;2023-04-07T01:57:05;100765.09;;;9.70;68.95
7524;BME280;3803;51.666;7.630;2023-04-07T01:57:26;100770.41;;;9.73;68.86
7524;BME280;3803;51.666;7.630;2023-04-07T01:57:52;100762.41;;;9.67;68.51
7524;BME280;3803;51.666;7.630;2023-04-07T01:58:13;100770.50;;;9.76;68.88
7524;BME280;3803;51.666;7.630;2023-04-07T01:58:36;100780.09;;;9.77;68.63
7524;BME280;3803;51.666;7.630;2023-04-07T01:58:59;100778.31;;;9.76;68.79
7524;BME280;3803;51.666;7.630;2023-04-07T01:59:20;100764.22;;;9.69;68.72
7524;BME280;3803;51.666;7.630;2023-04-07T01:59:41;100762.53;;;9.71;68.97
7524;BME280;3803;51.666;7.630;2023-04-07T02:00:02;100765.97;;;9.70;68.92
7524;BME280;3803;51.666;7.630;2023-04-07T02:00:35;100770.34;;;9.71;68.93
7524;BME280;3803;51.666;7.630;2023-04-07T02:01:00;100765.19;;;9.73;69.02
7524;BME280;3803;51.666;7.630;2023-04-07T02:01:20;100763.38;;;9.70;68.81
7524;BME280;3803;51.666;7.630;2023-04-07T02:01:41;100762.59;;;9.73;68.77
7524;BME280;3803;51.666;7.630;2023-04-07T02:02:02;100773.22;;;9.79;68.78
7524;BME280;3803;51.666;7.630;2023-04-07T02:02:22;100768.59;;;9.70;68.72
7524;BME280;3803;51.666;7.630;2023-04-07T02:02:45;100771.53;;;9.81;68.55
7524;BME280;3803;51.666;7.630;2023-04-07T02:03:12;100769.84;;;9.83;68.62
7524;BME280;3803;51.666;7.630;2023-04-07T02:04:24;100774.97;;;9.80;68.83
7524;BME280;3803;51.666;7.630;2023-04-07T02:04:44;100772.38;;;9.80;68.93
7524;BME280;3803;51.666;7.630;2023-04-07T02:05:12;100753.09;;;9.75;68.74
7524;BME280;3803;51.666;7.630;2023-04-07T02:05:35;100758.22;;;9.72;68.79
7524;BME280;3803;51.666;7.630;2023-04-07T02:06:02;100758.31;;;9.75;69.13
7524;BME280;3803;51.666;7.630;2023-04-07T02:06:31;100767.03;;;9.76;68.93
7524;BME280;3803;51.666;7.630;2023-04-07T02:07:00;100769.97;;;9.86;68.88
7524;BME280;3803;51.666;7.630;2023-04-07T02:07:59;100773.56;;;9.90;68.60
7524;BME280;3803;51.666;7.630;2023-04-07T02:08:20;100765.75;;;9.90;68.44
7524;BME280;3803;51.666;7.630;2023-04-07T02:08:50;100750.69;;;9.81;68.87
7524;BME280;3803;51.666;7.630;2023-04-07T02:09:14;100770.09;;;9.91;68.82
7524;BME280;3803;51.666;7.630;2023-04-07T02:09:37;100754.97;;;9.79;68.56
7524;BME280;3803;51.666;7.630;2023-04-07T02:10:01;100778.56;;;9.84;68.62
7524;BME280;3803;51.666;7.630;2023-04-07T02:10:24;100754.06;;;9.79;68.32
7524;BME280;3803;51.666;7.630;2023-04-07T02:10:49;100758.56;;;9.83;68.62